Main page


Airports :

St. Moritz, Switzerland

Samedan Airport

latitude: 46-32-03N, longitude: 9-53-03E, elevation: 1707 m

Current weather observation

The report was made 32 minutes ago, at 21:20 UTC
Wind 4 kt from the North/Northeast, varying between Northwest and East
Temperature -4°C
Humidity 63%
Pressure 1006 hPa
Visibility 10 km or more
Broken clouds at a height of 5000 ft

METAR: LSZS 222120Z AUTO 03004KT 320V100 9999 BKN050 M04/M10 Q1006

Time: 22:52 (21:52 UTC)


The report was made 7 hours and 27 minutes ago, at 14:25 UTC
Forecast valid from 22 at 15 UTC to 22 at 24 UTC
Wind 5 kt from the North
Visibility 10 km or more
Scattered clouds at a height of 6000 ft
from 22 at 18 UTC to 22 at 24 UTC
Visibility: 4500 m
Broken clouds at a height of 1200 ft
light snow

TAF: LSZS 221425Z 2215/2224 01005KT 9999 SCT060 TXM00/2215Z TEMPO 2218/2224 4500 -SN BKN012

Weather observations and forecasts of more than 4000 airports (METAR and TAF reports).

The available stations are represented by yellow and red dots on the map.

Hover mouse over dot to see the name of the station.

Then click to see weather observations and forecasts.

To change the map : click on the green buttons with a black cross to zoom in, on the green button with a dash to zoom out, or on the green arrows for adjacent maps.